Time;durP1;ratioP1;P1;durP2;ratioP2;P2;SDS_P1;SDS_P2;PMS_P1;PMS_P2;Temp;Humidity;BMP_temperature;BMP_pressure;BME280_temperature;BME280_humidity;BME280_pressure;Samples;Min_cycle;Max_cycle;Signal;HPM_P1;HPM_P2
2021/12/03 00:01:21;;;;;;;10.50;6.90;;;;;;;6.94;58.36;93907.94;4920159;29;20036;-80
2021/12/03 00:03:47;;;;;;;10.80;6.00;;;;;;;6.99;58.40;93897.69;4902179;29;20099;-81
2021/12/03 00:06:14;;;;;;;11.02;6.55;;;;;;;7.11;58.17;93903.59;4902210;29;20047;-80
2021/12/03 00:08:40;;;;;;;16.27;6.80;;;;;;;7.28;57.42;93915.75;4887335;29;20079;-80
2021/12/03 00:11:08;;;;;;;28.00;13.73;;;;;;;7.38;57.34;93908.97;4886364;29;20484;-79
2021/12/03 00:13:34;;;;;;;43.75;25.48;;;;;;;7.42;57.43;93932.56;4921575;29;20469;-81
2021/12/03 00:16:00;;;;;;;11.05;6.47;;;;;;;7.40;56.60;93916.50;4887274;29;20036;-80
2021/12/03 00:18:26;;;;;;;10.23;7.60;;;;;;;7.48;56.77;93916.91;4886577;29;20039;-80
2021/12/03 00:20:51;;;;;;;8.38;6.45;;;;;;;7.40;56.68;93912.09;4909823;29;20095;-79
2021/12/03 00:23:17;;;;;;;14.25;7.60;;;;;;;7.47;57.09;93917.09;4911593;29;20032;-78
2021/12/03 00:25:43;;;;;;;16.20;9.25;;;;;;;7.53;56.86;93926.53;4927240;29;20517;-78
2021/12/03 00:28:09;;;;;;;11.10;7.18;;;;;;;7.58;56.87;93926.63;4911272;29;20044;-79
2021/12/03 00:30:34;;;;;;;12.75;7.30;;;;;;;7.10;58.07;93904.59;4886706;29;20040;-79
2021/12/03 00:33:00;;;;;;;10.40;7.10;;;;;;;6.99;59.04;93907.22;4919453;29;20046;-80
2021/12/03 00:35:26;;;;;;;15.43;7.70;;;;;;;7.02;58.73;93899.81;4901878;29;20035;-79
2021/12/03 00:37:52;;;;;;;9.48;6.55;;;;;;;7.02;59.04;93899.03;4901485;29;20032;-80
2021/12/03 00:40:21;;;;;;;8.95;6.53;;;;;;;7.19;58.63;93910.97;4919654;29;20036;-79
2021/12/03 00:42:46;;;;;;;15.00;6.90;;;;;;;7.34;58.29;93925.19;4901928;29;20047;-80
2021/12/03 00:45:13;;;;;;;11.30;6.90;;;;;;;7.43;58.03;93921.19;4887268;29;20029;-80
2021/12/03 00:47:39;;;;;;;17.92;7.55;;;;;;;7.57;57.56;93937.19;4886511;29;20032;-79
2021/12/03 00:50:05;;;;;;;14.18;8.93;;;;;;;7.64;57.43;93936.00;4886626;29;20090;-80
2021/12/03 00:52:31;;;;;;;20.77;11.02;;;;;;;7.72;58.08;93938.22;4885321;29;20024;-80
2021/12/03 00:54:56;;;;;;;14.77;8.35;;;;;;;7.71;57.56;93922.94;4919017;29;20109;-79
2021/12/03 00:57:22;;;;;;;12.57;6.35;;;;;;;7.74;57.10;93933.59;4901413;29;20039;-79
2021/12/03 00:59:47;;;;;;;15.98;5.90;;;;;;;7.80;56.49;93924.88;4886329;29;20036;-80
2021/12/03 01:02:13;;;;;;;36.65;18.92;;;;;;;7.91;56.33;93925.81;4886462;29;20036;-81
2021/12/03 01:04:38;;;;;;;43.38;24.70;;;;;;;7.94;56.74;93912.41;4885869;29;20035;-80
2021/12/03 01:07:04;;;;;;;47.15;27.48;;;;;;;7.88;56.94;93915.16;4886176;29;20040;-81
2021/12/03 01:09:42;;;;;;;29.25;14.57;;;;;;;7.92;56.72;93900.72;4916388;29;20046;-81
2021/12/03 01:12:08;;;;;;;12.85;6.88;;;;;;;7.90;56.42;93892.41;4901099;29;20039;-80
2021/12/03 01:14:33;;;;;;;14.18;8.00;;;;;;;7.99;56.35;93924.66;4902066;29;20028;-80
2021/12/03 01:16:59;;;;;;;24.52;13.05;;;;;;;8.04;56.03;93901.41;4886044;29;20128;-80
2021/12/03 01:19:24;;;;;;;23.10;11.77;;;;;;;8.08;56.00;93902.50;4885476;29;20036;-80
2021/12/03 01:21:50;;;;;;;21.10;11.93;;;;;;;8.03;55.84;93910.22;4885054;29;20039;-80
2021/12/03 01:24:15;;;;;;;11.43;4.13;;;;;;;8.14;56.56;93904.16;4871601;29;20040;-80
2021/12/03 01:26:43;;;;;;;12.80;6.82;;;;;;;8.42;55.85;93909.22;4900089;29;20036;-80
2021/12/03 01:29:09;;;;;;;11.32;6.65;;;;;;;8.52;55.45;93867.09;4887290;29;20036;-79
2021/12/03 01:31:34;;;;;;;15.82;7.38;;;;;;;8.60;55.64;93894.38;4888960;29;20032;-78
2021/12/03 01:34:00;;;;;;;9.85;4.72;;;;;;;8.73;55.95;93866.28;4888207;29;20393;-80
2021/12/03 01:36:25;;;;;;;11.00;5.50;;;;;;;8.90;55.39;93884.34;4907228;29;20046;-78
2021/12/03 01:38:50;;;;;;;6.38;4.40;;;;;;;9.07;55.24;93888.69;4926610;29;20036;-78
2021/12/03 01:41:16;;;;;;;10.45;4.75;;;;;;;9.18;54.58;93885.16;4927762;29;20044;-78
2021/12/03 01:43:43;;;;;;;6.70;4.55;;;;;;;9.32;54.00;93897.50;4906125;29;20114;-79
2021/12/03 01:46:10;;;;;;;7.68;4.43;;;;;;;9.43;53.41;93893.16;4900494;29;20067;-80
2021/12/03 01:48:35;;;;;;;6.80;3.97;;;;;;;9.46;54.10;93887.50;4900837;29;20040;-80
2021/12/03 01:51:01;;;;;;;11.82;4.50;;;;;;;9.27;53.67;93888.84;4885251;29;20056;-80
2021/12/03 01:53:29;;;;;;;10.43;4.35;;;;;;;9.22;53.75;93906.97;4918333;29;20111;-80
2021/12/03 01:55:56;;;;;;;13.07;4.75;;;;;;;9.22;53.61;93896.59;4900865;29;20052;-80
2021/12/03 01:58:21;;;;;;;7.68;4.55;;;;;;;9.14;51.91;93882.28;4885542;29;20032;-80
2021/12/03 02:00:58;;;;;;;7.75;4.15;;;;;;;8.60;53.81;93871.06;4885645;29;20475;-80
2021/12/03 02:03:25;;;;;;;6.97;4.55;;;;;;;8.59;53.30;93893.59;4869650;29;20417;-80
2021/12/03 02:05:51;;;;;;;12.68;4.57;;;;;;;8.59;54.07;93882.47;4899779;29;20038;-79
2021/12/03 02:08:17;;;;;;;10.43;5.15;;;;;;;8.54;53.86;93885.78;4917884;29;20368;-79
2021/12/03 02:10:42;;;;;;;5.63;4.60;;;;;;;8.54;53.49;93880.59;4917456;29;20040;-80
2021/12/03 02:13:08;;;;;;;4.20;2.45;;;;;;;8.43;55.04;93863.34;4884827;29;20168;-80
2021/12/03 02:15:33;;;;;;;5.82;3.53;;;;;;;8.65;53.24;93907.44;4917896;29;20028;-80
2021/12/03 02:17:59;;;;;;;7.65;3.83;;;;;;;8.77;53.40;93879.56;4916200;29;20034;-80
2021/12/03 02:20:24;;;;;;;;;;;;;;;8.80;53.57;93863.53;4884457;29;20044;-80
2021/12/03 02:22:50;;;;;;;5.03;2.95;;;;;;;8.85;53.91;93840.25;4900329;29;19973;-79
2021/12/03 02:25:20;;;;;;;8.52;3.45;;;;;;;8.95;53.51;93866.28;4900104;29;20040;-79
2021/12/03 02:27:48;;;;;;;6.00;3.90;;;;;;;9.20;53.06;93880.50;4898365;29;20415;-79
2021/12/03 02:30:14;;;;;;;8.18;3.50;;;;;;;9.36;52.13;93858.84;4901088;29;20028;-80
2021/12/03 02:32:40;;;;;;;7.10;3.50;;;;;;;9.53;52.33;93862.09;4884011;29;20409;-80
2021/12/03 02:35:05;;;;;;;;;;;;;;;9.54;51.92;93871.47;4884458;29;20024;-79
2021/12/03 02:37:31;;;;;;;;;;;;;;;9.17;52.45;93852.47;4917559;29;19997;-79
2021/12/03 02:39:56;;;;;;;;;;;;;;;9.09;52.41;93868.47;4920158;29;19919;-79
2021/12/03 02:42:21;;;;;;;;;;;;;;;9.06;53.25;93868.97;4920699;29;19919;-80
2021/12/03 02:44:47;;;;;;;6.18;3.20;;;;;;;8.97;53.62;93873.81;4902903;29;19926;-80
2021/12/03 02:47:12;;;;;;;8.48;4.32;;;;;;;9.03;53.36;93868.41;4888230;29;20028;-80
2021/12/03 02:49:38;;;;;;;;;;;;;;;9.02;52.98;93869.44;4921171;29;20075;-80
2021/12/03 02:52:04;;;;;;;;;;;;;;;8.72;53.28;93862.13;4904186;29;19922;-80
2021/12/03 02:54:29;;;;;;;;;;;;;;;8.51;54.60;93854.41;4903745;29;19922;-80
2021/12/03 02:56:54;;;;;;;;;;;;;;;8.56;54.36;93870.78;4902396;29;20030;-80
2021/12/03 02:59:19;;;;;;;;;;;;;;;8.56;54.26;93862.22;4920831;29;19923;-80
2021/12/03 03:01:45;;;;;;;;;;;;;;;8.46;54.94;93854.31;4920828;29;20285;-80
2021/12/03 03:04:10;;;;;;;;;;;;;;;8.41;54.84;93871.38;4921000;29;19923;-80
2021/12/03 03:06:36;;;;;;;;;;;;;;;8.45;55.34;93870.88;4902342;29;19958;-80
2021/12/03 03:09:03;;;;;;;;;;;;;;;8.53;55.09;93873.06;4920876;29;19923;-80
2021/12/03 03:11:29;;;;;;;;;;;;;;;8.59;55.22;93882.47;4921349;29;19970;-80
2021/12/03 03:13:54;;;;;;;;;;;;;;;8.67;54.84;93874.28;4920883;29;19923;-80
2021/12/03 03:16:19;;;;;;;;;;;;;;;8.72;54.15;93887.28;4920499;29;20802;-80
2021/12/03 03:18:45;;;;;;;;;;;;;;;8.80;54.51;93878.31;4920577;29;19923;-79
2021/12/03 03:21:10;;;;;;;;;;;;;;;8.87;54.47;93886.66;4921137;29;19923;-81
2021/12/03 03:23:35;;;;;;;;;;;;;;;8.95;53.88;93861.09;4887384;29;19966;-81
2021/12/03 03:26:00;;;;;;;;;;;;;;;9.01;54.42;93865.28;4902605;29;19922;-81
2021/12/03 03:28:26;;;;;;;;;;;;;;;8.88;54.68;93870.06;4920554;29;19923;-80
2021/12/03 03:30:51;;;;;;;;;;;;;;;8.85;54.85;93881.72;4887628;29;19923;-81
2021/12/03 03:33:41;;;;;;;;;;;;;;;8.87;54.64;93884.06;4908478;29;19936;-81
2021/12/03 03:36:07;;;;;;;;;;;;;;;8.97;55.32;93879.00;4920774;29;20001;-81
2021/12/03 03:38:32;;;;;;;;;;;;;;;9.07;54.66;93888.69;4919407;29;19962;-81
2021/12/03 03:40:57;;;;;;;;;;;;;;;9.17;54.99;93883.59;4920944;29;19919;-81
2021/12/03 03:43:23;;;;;;;;;;;;;;;9.23;54.25;93882.59;4920690;29;19978;-80
2021/12/03 03:45:48;;;;;;;;;;;;;;;9.07;54.84;93849.78;4903382;29;20327;-80
2021/12/03 03:48:13;;;;;;;;;;;;;;;8.97;54.63;93884.97;4886851;29;20404;-80
2021/12/03 03:50:39;;;;;;;;;;;;;;;9.07;54.59;93899.84;4901769;29;20010;-80
2021/12/03 03:53:04;;;;;;;10.50;5.43;;;;;;;9.08;54.81;93874.69;4902995;29;19930;-80
2021/12/03 03:55:30;;;;;;;5.88;4.43;;;;;;;9.18;55.34;93849.63;4902837;29;20032;-80
2021/12/03 03:57:56;;;;;;;14.43;6.20;;;;;;;9.31;54.78;93874.38;4902395;29;20036;-79
2021/12/03 04:00:25;;;;;;;9.52;4.75;;;;;;;9.39;54.93;93878.34;4902129;29;20047;-80
2021/12/03 04:02:50;;;;;;;11.48;5.53;;;;;;;9.65;54.64;93884.53;4900396;29;20412;-80
2021/12/03 04:05:16;;;;;;;9.30;5.15;;;;;;;9.79;53.57;93885.66;4886837;29;20044;-81
2021/12/03 04:07:41;;;;;;;7.82;5.30;;;;;;;9.69;53.63;93901.16;4887193;29;20401;-81
2021/12/03 04:10:07;;;;;;;6.22;4.70;;;;;;;9.57;53.45;93883.16;4919752;29;20119;-81
2021/12/03 04:12:33;;;;;;;7.05;4.43;;;;;;;9.23;54.43;93867.03;4908802;29;20047;-79
2021/12/03 04:14:58;;;;;;;7.95;5.00;;;;;;;9.39;54.79;93901.69;4896062;29;20416;-79
2021/12/03 04:17:24;;;;;;;8.93;5.20;;;;;;;9.56;53.85;93897.94;4911633;29;20040;-80
2021/12/03 04:19:49;;;;;;;9.00;5.80;;;;;;;9.53;53.58;93880.28;4924916;29;20408;-79
2021/12/03 04:22:18;;;;;;;;;;;;;;;9.44;53.86;93886.19;4924044;29;20044;-79
2021/12/03 04:24:43;;;;;;;7.93;4.60;;;;;;;9.12;54.89;93876.56;4907235;29;19994;-80
2021/12/03 04:27:09;;;;;;;7.93;4.53;;;;;;;8.94;55.25;93885.44;4904944;29;21424;-80
2021/12/03 04:29:34;;;;;;;15.50;6.18;;;;;;;9.16;55.20;93892.41;4890160;29;20432;-80
2021/12/03 04:31:59;;;;;;;23.80;13.53;;;;;;;9.45;54.75;93911.88;4921942;29;20420;-87
2021/12/03 04:34:25;;;;;;;15.27;9.00;;;;;;;9.66;54.38;93888.69;4911969;29;20436;-84
2021/12/03 04:36:50;;;;;;;14.23;6.97;;;;;;;9.84;52.90;93901.28;4925438;29;20404;-80
2021/12/03 04:39:16;;;;;;;5.83;4.60;;;;;;;9.92;52.53;93912.00;4908141;29;20420;-85
2021/12/03 04:41:42;;;;;;;8.52;4.03;;;;;;;10.08;52.69;93914.66;4874409;29;20428;-83
2021/12/03 04:44:08;;;;;;;33.72;17.92;;;;;;;10.04;52.73;93919.59;4903953;29;20055;-83
2021/12/03 04:46:33;;;;;;;15.43;7.95;;;;;;;9.93;53.00;93907.59;4903312;29;20102;-84
2021/12/03 04:48:59;;;;;;;9.85;5.57;;;;;;;9.81;53.79;93922.56;4903205;29;20048;-83
2021/12/03 04:51:24;;;;;;;14.07;7.15;;;;;;;9.78;53.38;93891.91;4887702;29;20472;-84
2021/12/03 04:53:50;;;;;;;33.40;21.33;;;;;;;9.68;53.41;93920.38;4886259;29;20408;-84
2021/12/03 04:56:25;;;;;;;12.57;6.37;;;;;;;9.89;53.39;93922.06;4871611;29;20420;-85
2021/12/03 04:58:50;;;;;;;12.02;6.38;;;;;;;9.97;53.08;93939.81;4887596;29;20024;-84
2021/12/03 05:01:16;;;;;;;9.97;5.93;;;;;;;10.11;52.40;93925.38;4883938;29;20400;-84
2021/12/03 05:03:41;;;;;;;10.53;6.53;;;;;;;10.35;52.61;93904.22;4918117;29;20421;-85
2021/12/03 05:06:09;;;;;;;11.60;5.25;;;;;;;10.34;52.59;93936.44;5112952;24;20140;-86
2021/12/03 05:08:37;;;;;;;8.38;3.97;;;;;;;10.28;52.26;93934.84;4862626;29;20045;-85
2021/12/03 05:11:03;;;;;;;5.50;3.88;;;;;;;10.26;52.76;93908.34;4846388;29;20036;-85
2021/12/03 05:13:30;;;;;;;6.13;3.67;;;;;;;10.25;52.95;93915.34;4847048;29;20108;-88
2021/12/03 05:15:55;;;;;;;;;;;;;;;10.26;53.13;93931.72;4861665;29;20033;-83
2021/12/03 05:20:51;;;;;;;;;;;;;;;10.34;52.46;93928.63;4917729;29;19923;-83
2021/12/03 05:23:17;;;;;;;;;;;;;;;10.38;52.19;93919.31;4902491;29;19943;-84
2021/12/03 05:25:51;;;;;;;;;;;;;;;10.37;52.51;93922.94;4904275;29;19938;-82
2021/12/03 05:28:17;;;;;;;;;;;;;;;10.41;52.18;93931.78;4906935;29;19903;-82
2021/12/03 05:30:42;;;;;;;;;;;;;;;10.32;52.55;93925.50;4919109;29;19919;-86
2021/12/03 05:33:07;;;;;;;8.93;5.30;;;;;;;10.19;52.78;93930.09;4904388;29;19919;-84
2021/12/03 05:35:33;;;;;;;11.90;6.57;;;;;;;10.21;53.26;93938.44;4886080;29;20041;-82
2021/12/03 05:40:28;;;;;;;;;;;;;;;10.30;53.22;93954.34;4901001;29;19948;-85
2021/12/03 05:42:57;;;;;;;20.98;10.32;;;;;;;10.28;53.36;93960.84;4885298;29;19924;-84
2021/12/03 05:45:27;;;;;;;25.20;14.47;;;;;;;10.47;53.33;93946.41;4888198;29;20415;-84
2021/12/03 05:47:52;;;;;;;10.82;6.50;;;;;;;10.81;52.13;93959.81;4891071;29;20427;-82
2021/12/03 05:50:18;;;;;;;29.43;14.87;;;;;;;10.99;51.67;93963.78;4895575;29;20440;-83
2021/12/03 05:52:43;;;;;;;10.27;5.97;;;;;;;11.18;51.06;93964.88;4867350;29;20425;-83
2021/12/03 05:55:09;;;;;;;10.07;4.80;;;;;;;11.10;51.35;93952.38;4858599;29;20432;-86
2021/12/03 05:57:34;;;;;;;12.13;4.87;;;;;;;11.09;51.36;93943.81;4879847;29;20413;-86
2021/12/03 06:00:04;;;;;;;9.65;5.18;;;;;;;11.12;51.32;93958.13;4880478;29;20466;-84
2021/12/03 06:02:29;;;;;;;19.40;8.38;;;;;;;11.35;50.77;93955.06;4896444;23;20428;-82
2021/12/03 06:04:55;;;;;;;7.63;2.90;;;;;;;11.44;50.49;93926.72;4900036;29;20047;-83
2021/12/03 06:07:20;;;;;;;7.20;2.67;;;;;;;11.60;49.93;93943.13;4912183;29;20501;-82
2021/12/03 06:09:46;;;;;;;4.87;2.60;;;;;;;11.86;49.48;93944.72;4874871;29;20453;-84
2021/12/03 06:12:11;;;;;;;10.38;4.70;;;;;;;11.89;49.33;93952.03;4851896;29;20044;-83
2021/12/03 06:14:37;;;;;;;14.85;5.03;;;;;;;11.84;49.98;93966.88;4866402;29;20393;-84
2021/12/03 06:17:02;;;;;;;9.47;5.00;;;;;;;11.89;49.63;93974.72;4881358;29;20418;-85
2021/12/03 06:19:28;;;;;;;7.83;3.30;;;;;;;12.07;48.86;93962.97;4867014;29;20896;-83
2021/12/03 06:21:53;;;;;;;5.93;3.08;;;;;;;12.19;48.68;93976.50;4885152;29;20417;-84
2021/12/03 06:24:19;;;;;;;17.27;7.03;;;;;;;12.39;49.18;93978.34;4869976;29;20446;-83
2021/12/03 06:26:44;;;;;;;7.63;3.33;;;;;;;12.50;47.66;93959.78;4889505;29;20428;-85
2021/12/03 06:29:10;;;;;;;10.80;2.83;;;;;;;12.33;47.50;93964.50;4883134;29;20790;-84
2021/12/03 06:31:35;;;;;;;9.50;2.60;;;;;;;12.10;48.08;93970.28;4901780;29;20036;-84
2021/12/03 06:34:04;;;;;;;9.82;3.13;;;;;;;12.08;48.50;93972.34;4889924;29;20032;-83
2021/12/03 06:36:36;;;;;;;11.48;3.17;;;;;;;12.00;48.76;93987.47;4869415;29;20449;-86
2021/12/03 06:39:27;;;;;;;8.05;2.80;;;;;;;12.06;47.93;93975.22;4883001;29;20901;-84
2021/12/03 06:41:53;;;;;;;8.73;2.47;;;;;;;12.15;47.28;93968.44;4900965;29;20051;-84
2021/12/03 06:44:18;;;;;;;;;;;;;;;12.19;47.80;94000.75;4885257;29;20020;-84
2021/12/03 06:46:43;;;;;;;;;;;;;;;12.16;47.55;94005.69;4901883;29;19930;-84
2021/12/03 06:49:09;;;;;;;;;;;;;;;12.12;48.02;93989.03;4883121;29;19931;-82
2021/12/03 06:51:40;;;;;;;;;;;;;;;12.11;48.21;93996.06;4870031;29;19947;-83
2021/12/03 06:54:06;;;;;;;;;;;;;;;12.16;47.94;93987.47;4870834;29;19962;-85
2021/12/03 06:56:33;;;;;;;;;;;;;;;12.20;48.00;93991.09;4885948;29;19920;-82
2021/12/03 06:59:02;;;;;;;;;;;;;;;12.27;48.44;94015.09;4902322;29;19982;-85
2021/12/03 07:01:27;;;;;;;;;;;;;;;12.36;47.95;94010.13;4887569;29;20063;-84
2021/12/03 07:03:54;;;;;;;;;;;;;;;12.31;47.42;94009.09;4901149;29;19974;-84
2021/12/03 07:06:20;;;;;;;;;;;;;;;12.40;47.61;93998.16;4898794;29;20368;-83
2021/12/03 07:08:45;;;;;;;;;;;;;;;12.50;47.42;94011.94;4880885;29;19919;-83
2021/12/03 07:11:10;;;;;;;;;;;;;;;12.60;47.28;94005.94;4881191;29;19927;-83
2021/12/03 07:13:35;;;;;;;;;;;;;;;12.67;46.81;94010.88;4880478;29;19924;-83
2021/12/03 07:16:04;;;;;;;;;;;;;;;12.71;46.64;93997.06;4882161;29;20022;-83
2021/12/03 07:18:30;;;;;;;;;;;;;;;12.80;46.59;94010.31;4866551;29;19923;-83
2021/12/03 07:20:55;;;;;;;;;;;;;;;12.77;46.67;94000.44;4866359;29;19952;-82
2021/12/03 07:23:20;;;;;;;;;;;;;;;12.61;47.52;93987.41;4921634;23;20368;-82
2021/12/03 07:25:45;;;;;;;7.93;2.60;;;;;;;12.70;47.34;93994.72;4909946;29;19959;-84
2021/12/03 07:28:15;;;;;;;9.93;3.67;;;;;;;12.88;46.94;94004.59;4900119;29;20036;-84
2021/12/03 07:30:41;;;;;;;10.30;3.17;;;;;;;13.19;45.82;93998.25;4890391;29;20431;-83
2021/12/03 07:33:11;;;;;;;6.90;2.53;;;;;;;13.49;44.52;93993.91;4903443;29;20460;-84
2021/12/03 07:35:36;;;;;;;7.45;2.67;;;;;;;13.73;44.15;93989.59;4890529;29;20406;-84
2021/12/03 07:39:09;;;;;;;8.40;3.90;;;;;;;14.11;42.86;93972.34;4890455;29;20415;-81
2021/12/03 07:41:36;;;;;;;9.15;2.78;;;;;;;14.45;43.13;94015.25;4881774;29;20418;-83
2021/12/03 07:44:02;;;;;;;6.75;2.97;;;;;;;14.82;41.89;93975.41;4888087;29;20419;-81
2021/12/03 07:46:27;;;;;;;4.82;1.90;;;;;;;14.94;41.81;93987.03;4911817;29;20485;-82
2021/12/03 07:52:28;;;;;;;;;;;;;;;15.08;41.70;94007.31;4892073;29;20125;-83
2021/12/03 07:54:54;;;;;;;;;;;;;;;15.11;41.19;93999.66;4891560;29;19967;-84
2021/12/03 07:57:20;;;;;;;11.70;3.20;;;;;;;15.04;41.52;94020.19;4889316;29;19949;-84
2021/12/03 07:59:48;;;;;;;8.73;4.30;;;;;;;15.12;41.65;94016.94;4874879;29;20048;-82
2021/12/03 08:02:14;;;;;;;5.88;1.67;;;;;;;15.15;40.37;94005.94;4905367;29;20044;-83
2021/12/03 08:04:39;;;;;;;6.00;1.95;;;;;;;15.17;41.30;94013.50;4905063;29;20038;-82
2021/12/03 08:07:08;;;;;;;13.63;2.50;;;;;;;15.11;40.91;94014.59;4905608;29;20080;-81
2021/12/03 08:09:34;;;;;;;7.68;1.88;;;;;;;14.91;40.89;94026.06;4887914;29;20032;-83
2021/12/03 08:11:59;;;;;;;10.40;2.67;;;;;;;14.98;41.27;94027.31;4906750;29;20044;-83
2021/12/03 08:14:24;;;;;;;5.45;2.17;;;;;;;14.66;42.19;94025.28;4890517;29;20047;-82
2021/12/03 08:16:50;;;;;;;6.70;2.58;;;;;;;14.77;42.03;94031.16;4891839;29;20088;-83
2021/12/03 08:19:15;;;;;;;16.67;6.50;;;;;;;14.98;42.68;94014.22;4888754;29;20434;-83
2021/12/03 08:21:41;;;;;;;14.70;5.53;;;;;;;14.97;43.09;94032.84;4912859;29;20039;-83
2021/12/03 08:24:06;;;;;;;10.90;2.22;;;;;;;14.92;41.72;94028.41;4888845;29;20056;-83
2021/12/03 08:26:32;;;;;;;;;;;;;;;14.89;42.40;94028.97;4887269;29;20028;-83
2021/12/03 08:28:58;;;;;;;;;;;;;;;14.90;42.74;94029.75;4899085;29;19923;-83
2021/12/03 08:31:24;;;;;;;11.90;4.50;;;;;;;14.74;43.51;94017.88;4913721;29;19928;-82
2021/12/03 08:33:51;;;;;;;16.25;4.45;;;;;;;14.74;42.83;94026.50;4880588;29;20911;-81
2021/12/03 08:36:17;;;;;;;7.88;2.60;;;;;;;15.00;42.04;94027.03;4870713;29;20799;-86
2021/12/03 08:38:43;;;;;;;5.57;2.53;;;;;;;15.16;41.56;94038.13;4891762;29;20430;-87
2021/12/03 08:41:09;;;;;;;16.10;3.03;;;;;;;15.24;41.35;94034.88;4898819;29;20048;-85
2021/12/03 08:43:34;;;;;;;8.87;2.40;;;;;;;15.23;41.42;94033.31;4896301;29;20408;-85
2021/12/03 08:46:08;;;;;;;13.10;3.97;;;;;;;15.28;42.01;94028.78;4892893;29;20436;-85
2021/12/03 08:48:37;;;;;;;;;;;;;;;15.35;42.07;94041.56;4895439;29;20041;-85
2021/12/03 08:51:24;;;;;;;;;;;;;;;15.27;42.72;94031.69;4918310;29;19978;-85
2021/12/03 08:56:42;;;;;;;;;;;;;;;15.19;43.41;94032.31;4893775;29;20421;-85
2021/12/03 08:59:07;;;;;;;17.83;9.57;;;;;;;15.13;43.65;94031.63;4896482;29;19920;-85
2021/12/03 09:01:33;;;;;;;31.15;11.38;;;;;;;15.23;42.93;94028.88;4877205;29;20425;-84
2021/12/03 09:03:58;;;;;;;13.40;5.80;;;;;;;15.36;42.17;94043.13;4900256;29;20419;-85
2021/12/03 09:06:25;;;;;;;13.90;4.70;;;;;;;15.42;41.26;94039.38;4891776;29;20412;-86
2021/12/03 09:08:51;;;;;;;10.30;1.83;;;;;;;15.43;40.29;94030.47;4903766;29;20415;-84
2021/12/03 09:11:17;;;;;;;8.07;1.93;;;;;;;15.39;40.54;94047.81;4889769;29;20455;-84
2021/12/03 09:13:45;;;;;;;8.70;2.15;;;;;;;15.38;40.35;94051.50;4891137;29;20410;-84
2021/12/03 09:16:14;;;;;;;7.90;3.17;;;;;;;15.29;40.89;94059.19;4893760;29;20501;-84
2021/12/03 09:18:43;;;;;;;13.77;3.00;;;;;;;15.13;41.74;94054.38;4892772;29;20085;-85
2021/12/03 09:21:14;;;;;;;14.38;6.65;;;;;;;14.92;42.68;94036.25;4902141;29;20104;-85
2021/12/03 09:26:16;;;;;;;16.40;6.95;;;;;;;14.67;43.54;94039.91;4894556;29;20033;-85
2021/12/03 09:28:44;;;;;;;15.90;4.57;;;;;;;14.54;43.40;94016.22;4894770;29;20044;-83
2021/12/03 09:31:11;;;;;;;16.50;7.97;;;;;;;14.46;43.40;94038.50;4910978;29;20020;-83
2021/12/03 09:33:39;;;;;;;16.60;5.05;;;;;;;14.40;43.00;94000.34;4912636;29;20028;-85
2021/12/03 09:36:09;;;;;;;19.08;6.60;;;;;;;14.30;44.10;94031.81;4900446;29;20036;-83
2021/12/03 09:38:36;;;;;;;6.18;2.58;;;;;;;14.32;42.90;94019.25;4891565;29;20096;-85
2021/12/03 09:41:25;;;;;;;7.38;2.45;;;;;;;14.30;42.93;94027.34;4897801;29;20068;-84
2021/12/03 09:43:53;;;;;;;15.30;3.70;;;;;;;14.29;43.38;94038.09;4901841;29;20489;-84
2021/12/03 09:46:23;;;;;;;24.30;10.32;;;;;;;14.33;44.01;94036.50;4900726;29;20032;-84
2021/12/03 09:54:44;;;;;;;18.67;4.60;;;;;;;14.64;43.60;94042.28;4903640;29;20056;-84
2021/12/03 10:00:18;;;;;;;22.77;5.55;;;;;;;14.60;42.66;94031.59;4902145;29;20496;-85
2021/12/03 10:16:19;;;;;;;9.90;2.70;;;;;;;14.49;41.87;94014.44;4912696;29;20040;-85
2021/12/03 10:19:02;;;;;;;9.38;4.45;;;;;;;14.55;42.03;94012.56;4876902;29;20138;-84
2021/12/03 10:27:25;;;;;;;23.20;4.35;;;;;;;14.47;41.89;94020.97;4894211;29;20031;-84
2021/12/03 10:29:55;;;;;;;13.90;6.68;;;;;;;14.40;42.80;94016.81;4919676;29;20129;-85
2021/12/03 10:43:38;;;;;;;14.55;4.43;;;;;;;14.95;41.08;94006.91;4900177;29;20045;-85
2021/12/03 10:48:55;;;;;;;11.25;4.32;;;;;;;14.97;41.75;93990.94;4888467;29;20056;-85
2021/12/03 10:54:05;;;;;;;9.13;2.63;;;;;;;14.94;41.55;93996.72;4891369;29;20029;-85
2021/12/03 11:45:07;;;;;;;13.63;3.35;;;;;;;14.93;41.06;93997.78;4898114;29;20083;-85
2021/12/03 11:56:43;;;;;;;5.65;2.47;;;;;;;15.01;39.35;93995.34;4922540;29;20124;-85
2021/12/03 13:21:22;;;;;;;3.60;2.00;;;;;;;14.80;41.10;94008.91;4907210;29;20099;-79
2021/12/03 13:36:08;;;;;;;8.73;3.05;;;;;;;14.56;40.84;94008.88;4901803;29;20043;-78
2021/12/03 14:51:00;;;;;;;22.83;7.15;;;;;;;14.32;41.14;94037.56;4911994;29;20084;-85
2021/12/03 14:56:06;;;;;;;12.60;5.18;;;;;;;14.19;41.83;94031.13;4912174;29;20051;-84
2021/12/03 15:11:53;;;;;;;28.10;8.85;;;;;;;13.92;43.85;94041.22;4906269;29;20263;-85
2021/12/03 15:29:58;;;;;;;18.02;4.97;;;;;;;13.67;43.91;94061.25;4905369;29;20055;-84
2021/12/03 16:10:42;;;;;;;7.93;3.25;;;;;;;9.52;60.25;94138.22;4896931;29;20044;-88
2021/12/03 16:53:26;;;;;;;5.15;3.83;;;;;;;7.42;66.84;94197.16;4892056;29;20048;-87
2021/12/03 16:56:12;;;;;;;4.17;3.20;;;;;;;7.41;66.78;94198.19;4901786;29;20024;-86
2021/12/03 16:58:38;;;;;;;3.95;3.42;;;;;;;7.36;67.25;94200.66;4896499;29;20827;-87
2021/12/03 17:01:07;;;;;;;5.70;3.35;;;;;;;7.27;67.05;94196.84;4892650;29;20040;-86
2021/12/03 17:07:02;;;;;;;4.35;3.60;;;;;;;6.99;67.26;94207.84;4903632;29;20032;-86
2021/12/03 17:14:13;;;;;;;2.95;2.75;;;;;;;6.68;67.82;94208.16;4907159;29;20075;-87
2021/12/03 17:22:55;;;;;;;4.35;3.30;;;;;;;6.51;67.69;94213.97;4903347;29;20441;-87
2021/12/03 18:00:49;;;;;;;4.60;3.08;;;;;;;5.40;72.96;94284.72;4878625;29;20052;-84
2021/12/03 18:48:26;;;;;;;4.93;3.40;;;;;;;4.53;75.83;94358.44;4911348;29;20036;-83
2021/12/03 18:51:12;;;;;;;7.18;5.35;;;;;;;4.53;76.56;94352.50;4880498;29;20547;-83
2021/12/03 18:56:24;;;;;;;3.00;2.70;;;;;;;4.60;76.31;94355.84;4923886;29;20040;-83
2021/12/03 18:58:57;;;;;;;3.72;3.38;;;;;;;4.61;76.13;94351.47;4910228;29;20024;-84
2021/12/03 19:01:26;;;;;;;3.08;2.83;;;;;;;4.58;76.20;94352.69;4922488;29;20067;-84
2021/12/03 19:09:22;;;;;;;5.43;2.40;;;;;;;4.62;75.54;94347.91;4927331;29;20076;-84
2021/12/03 19:14:20;;;;;;;16.38;11.77;;;;;;;4.67;75.51;94371.25;4914074;29;20079;-84
2021/12/03 19:16:45;;;;;;;16.83;11.40;;;;;;;4.73;74.97;94360.94;4905082;29;20053;-83
2021/12/03 19:19:13;;;;;;;;;;;;;;;4.78;74.52;94357.72;4920663;29;20043;-83
2021/12/03 19:21:39;;;;;;;5.75;4.70;;;;;;;4.71;74.61;94367.25;4939089;29;19923;-83
2021/12/03 19:24:05;;;;;;;4.03;3.65;;;;;;;4.66;74.56;94369.66;4898018;29;20016;-84
2021/12/03 19:26:32;;;;;;;3.42;3.13;;;;;;;4.63;75.05;94365.72;4906173;29;20047;-84
2021/12/03 19:28:58;;;;;;;6.72;4.18;;;;;;;4.52;75.28;94366.34;4914066;29;20024;-85
2021/12/03 19:31:24;;;;;;;5.30;4.30;;;;;;;4.44;75.48;94382.06;4911661;29;20032;-85
2021/12/03 19:33:49;;;;;;;;;;;;;;;4.45;75.32;94393.94;4896577;29;20064;-84
2021/12/03 19:36:22;;;;;;;7.47;5.20;;;;;;;4.44;75.65;94402.66;4911278;29;19919;-84
2021/12/03 19:38:48;;;;;;;14.65;8.40;;;;;;;4.63;76.34;94412.06;4895303;29;20408;-85
2021/12/03 19:41:37;;;;;;;13.10;8.60;;;;;;;5.04;74.34;94418.59;4893609;29;20516;-84
2021/12/03 19:44:02;;;;;;;17.52;11.88;;;;;;;5.43;73.65;94418.38;4923453;29;20821;-85
2021/12/03 19:46:35;;;;;;;18.08;10.88;;;;;;;5.66;72.44;94417.00;4927860;29;20032;-84
2021/12/03 19:51:55;;;;;;;2.00;1.80;;;;;;;5.48;71.33;94414.38;4908962;29;20044;-85
2021/12/03 19:54:21;;;;;;;2.35;2.08;;;;;;;5.38;72.71;94420.78;4909764;29;20079;-85
2021/12/03 19:56:47;;;;;;;11.88;7.20;;;;;;;5.40;72.26;94441.22;4894488;29;20035;-85
2021/12/03 19:59:12;;;;;;;13.65;7.40;;;;;;;5.50;72.24;94438.16;4910327;29;20097;-85
2021/12/03 20:01:38;;;;;;;23.90;12.18;;;;;;;5.57;72.55;94434.53;4910084;29;20039;-85
2021/12/03 20:04:04;;;;;;;18.65;11.68;;;;;;;5.83;71.22;94450.78;4909403;29;20432;-85
2021/12/03 20:06:29;;;;;;;37.78;18.98;;;;;;;5.99;71.03;94443.34;4903868;29;20064;-85
2021/12/03 20:08:57;;;;;;;16.90;10.45;;;;;;;6.09;70.16;94452.41;4910824;29;20032;-85
2021/12/03 20:11:37;;;;;;;26.40;13.35;;;;;;;6.13;70.01;94450.97;4918873;29;20038;-85